createdAt,value
2019-02-28T00:02:29.565Z,25.67
2019-02-28T00:05:05.908Z,26.07
2019-02-28T00:07:33.960Z,24.67
2019-02-28T00:10:06.341Z,25.17
2019-02-28T00:12:38.243Z,25.77
2019-02-28T00:15:10.066Z,25.43
2019-02-28T00:17:43.604Z,24.77
2019-02-28T00:20:15.976Z,25.23
2019-02-28T00:22:49.218Z,24.97
2019-02-28T00:25:20.719Z,26.77
2019-02-28T00:27:52.807Z,23.50
2019-02-28T00:30:24.936Z,22.13
2019-02-28T00:32:59.203Z,22.90
2019-02-28T00:35:29.681Z,23.13
2019-02-28T00:38:01.207Z,23.63
2019-02-28T00:40:32.509Z,23.53
2019-02-28T00:43:04.105Z,22.93
2019-02-28T00:45:37.137Z,24.60
2019-02-28T00:48:08.703Z,25.00
2019-02-28T00:50:40.028Z,23.57
2019-02-28T00:53:12.628Z,24.23
2019-02-28T00:55:45.971Z,24.40
2019-02-28T00:58:17.255Z,25.03
2019-02-28T01:00:48.538Z,24.40
2019-02-28T01:03:20.773Z,24.90
2019-02-28T01:05:53.257Z,23.33
2019-02-28T01:08:24.776Z,23.57
2019-02-28T01:10:56.057Z,24.50
2019-02-28T01:13:28.206Z,24.30
2019-02-28T01:15:59.741Z,23.43
2019-02-28T01:18:34.403Z,25.57
2019-02-28T01:21:04.477Z,24.90
2019-02-28T01:23:36.181Z,25.33
2019-02-28T01:26:07.577Z,23.37
2019-02-28T01:28:39.217Z,24.40
2019-02-28T01:31:11.592Z,23.90
2019-02-28T01:33:43.917Z,24.33
2019-02-28T01:36:15.557Z,23.07
2019-02-28T01:38:47.765Z,23.53
2019-02-28T01:41:19.138Z,23.87
2019-02-28T01:43:51.084Z,24.17
2019-02-28T01:46:22.751Z,26.33
2019-02-28T01:48:55.131Z,26.20
2019-02-28T01:51:26.560Z,25.97
2019-02-28T01:53:58.201Z,24.53
2019-02-28T01:56:29.725Z,27.23
2019-02-28T01:59:01.061Z,28.47
2019-02-28T02:01:33.233Z,26.87
2019-02-28T02:04:04.937Z,27.40
2019-02-28T02:06:36.701Z,28.20
2019-02-28T02:09:10.988Z,27.93
2019-02-28T02:11:41.867Z,28.93
2019-02-28T02:14:13.485Z,28.23
2019-02-28T02:16:44.824Z,28.80
2019-02-28T02:19:18.553Z,30.30
2019-02-28T02:21:49.746Z,30.20
2019-02-28T02:24:21.344Z,31.10
2019-02-28T02:26:53.350Z,29.73
2019-02-28T02:29:24.769Z,28.97
2019-02-28T02:31:56.120Z,30.53
2019-02-28T02:34:28.253Z,31.73
2019-02-28T02:37:00.891Z,33.00
2019-02-28T02:39:32.362Z,33.73
2019-02-28T02:42:10.008Z,33.23
2019-02-28T02:44:36.537Z,33.93
2019-02-28T02:47:09.459Z,34.00
2019-02-28T02:49:40.667Z,34.03
2019-02-28T02:52:17.214Z,33.80
2019-02-28T02:54:52.252Z,36.93
2019-02-28T02:57:21.684Z,35.50
2019-02-28T02:59:53.584Z,35.37
2019-02-28T03:02:28.655Z,39.30
2019-02-28T03:04:59.347Z,37.50
2019-02-28T03:07:30.691Z,39.30
2019-02-28T03:10:02.039Z,38.00
2019-02-28T03:12:34.566Z,39.60
2019-02-28T03:15:06.558Z,40.47
2019-02-28T03:17:38.228Z,41.53
2019-02-28T03:20:11.992Z,40.17
2019-02-28T03:22:48.402Z,40.83
2019-02-28T03:25:20.165Z,43.47
2019-02-28T03:27:56.466Z,43.57
2019-02-28T03:30:32.422Z,42.33
2019-02-28T03:32:58.160Z,39.03
2019-02-28T03:35:40.141Z,43.67
2019-02-28T03:38:10.179Z,42.60
2019-02-28T03:40:40.096Z,43.87
2019-02-28T03:43:09.392Z,43.50
2019-02-28T03:45:40.660Z,41.37
2019-02-28T03:48:12.286Z,44.37
2019-02-28T03:50:44.066Z,41.50
2019-02-28T03:53:21.102Z,45.47
2019-02-28T03:55:52.806Z,44.80
2019-02-28T03:58:24.190Z,42.07
2019-02-28T04:00:55.451Z,43.03
2019-02-28T04:03:33.370Z,44.70
2019-02-28T04:06:03.631Z,42.47
2019-02-28T04:08:33.148Z,43.17
2019-02-28T04:11:04.489Z,44.87
2019-02-28T04:13:35.758Z,42.67
2019-02-28T04:16:09.419Z,42.50
2019-02-28T04:18:46.163Z,43.73
2019-02-28T04:21:13.772Z,41.13
2019-02-28T04:23:45.612Z,43.60
2019-02-28T04:26:16.868Z,41.50
2019-02-28T04:28:53.456Z,43.70
2019-02-28T04:31:21.188Z,41.53
2019-02-28T04:33:53.436Z,41.77
2019-02-28T04:36:24.809Z,40.40
2019-02-28T04:38:56.162Z,42.70
2019-02-28T04:41:32.492Z,42.27
2019-02-28T04:44:00.534Z,40.37
2019-02-28T04:46:32.570Z,42.27
2019-02-28T04:49:04.286Z,41.07
2019-02-28T04:51:37.041Z,42.30
2019-02-28T04:54:09.398Z,40.67
2019-02-28T04:56:42.230Z,42.60
2019-02-28T04:59:14.670Z,42.93
2019-02-28T05:01:46.458Z,41.33
2019-02-28T05:04:17.879Z,43.87
2019-02-28T05:06:52.163Z,44.50
2019-02-28T05:09:22.308Z,45.10
2019-02-28T05:11:53.844Z,37.60
2019-02-28T05:14:27.064Z,45.70
2019-02-28T05:16:58.543Z,44.43
2019-02-28T05:19:32.306Z,39.40
2019-02-28T05:22:02.953Z,45.43
2019-02-28T05:24:34.393Z,44.37
2019-02-28T05:27:05.565Z,46.07
2019-02-28T05:29:37.079Z,44.30
2019-02-28T05:32:10.485Z,47.03
2019-02-28T05:34:41.693Z,46.03
2019-02-28T05:37:13.198Z,47.37
2019-02-28T05:39:44.668Z,47.97
2019-02-28T05:42:16.333Z,44.80
2019-02-28T05:44:47.635Z,48.07
2019-02-28T05:47:19.401Z,50.43
2019-02-28T05:49:51.289Z,50.60
2019-02-28T05:52:30.431Z,49.17
2019-02-28T05:55:00.912Z,47.63
2019-02-28T05:57:32.294Z,50.93
2019-02-28T06:00:03.850Z,51.23
2019-02-28T06:02:36.022Z,49.00
2019-02-28T06:05:08.414Z,52.30
2019-02-28T06:07:40.880Z,53.43
2019-02-28T06:10:12.683Z,49.97
2019-02-28T06:12:49.478Z,53.20
2019-02-28T06:15:20.987Z,49.90
2019-02-28T06:17:54.998Z,55.30
2019-02-28T06:20:26.511Z,55.10
2019-02-28T06:22:58.180Z,52.10
2019-02-28T06:25:29.592Z,52.03
2019-02-28T06:28:00.866Z,48.20
2019-02-28T06:30:32.489Z,54.07
2019-02-28T06:33:04.064Z,52.10
2019-02-28T06:35:35.376Z,54.30
2019-02-28T06:38:06.921Z,53.77
2019-02-28T06:40:39.302Z,53.00
2019-02-28T06:43:10.698Z,54.03
2019-02-28T06:45:41.959Z,54.80
2019-02-28T06:48:13.323Z,54.07
2019-02-28T06:50:45.554Z,50.63
2019-02-28T06:53:17.022Z,56.20
2019-02-28T06:55:48.441Z,55.00
2019-02-28T06:58:19.749Z,54.33
2019-02-28T07:00:51.401Z,55.13
2019-02-28T07:03:22.742Z,56.20
2019-02-28T07:05:57.474Z,46.93
2019-02-28T07:08:28.994Z,54.23
2019-02-28T07:11:00.541Z,54.30
2019-02-28T07:13:32.306Z,52.63
2019-02-28T07:16:04.359Z,51.53
2019-02-28T07:18:35.823Z,53.37
2019-02-28T07:21:07.984Z,52.77
2019-02-28T07:23:40.396Z,51.87
2019-02-28T07:26:12.353Z,53.87
2019-02-28T07:28:43.685Z,52.50
2019-02-28T07:31:15.305Z,47.43
2019-02-28T07:33:46.550Z,50.50
2019-02-28T07:36:18.020Z,46.93
2019-02-28T07:38:50.552Z,44.37
2019-02-28T07:41:26.481Z,45.43
2019-02-28T07:44:00.437Z,49.47
2019-02-28T07:46:32.039Z,45.93
2019-02-28T07:49:03.548Z,42.37
2019-02-28T07:51:34.999Z,44.30
2019-02-28T07:54:06.844Z,44.97
2019-02-28T07:56:42.837Z,44.43
2019-02-28T07:59:11.599Z,42.47
2019-02-28T08:01:42.971Z,43.67
2019-02-28T08:04:18.124Z,42.23
2019-02-28T08:06:47.581Z,41.17
2019-02-28T08:09:40.570Z,39.80
2019-02-28T08:12:12.202Z,40.03
2019-02-28T08:14:47.040Z,40.53
2019-02-28T08:17:16.957Z,39.97
2019-02-28T08:19:48.485Z,38.77
2019-02-28T08:22:24.326Z,38.87
2019-02-28T08:24:53.722Z,37.37
2019-02-28T08:27:25.564Z,39.00
2019-02-28T08:29:57.982Z,39.77
2019-02-28T08:32:29.526Z,40.03
2019-02-28T08:35:02.150Z,36.70
2019-02-28T08:37:33.770Z,38.70
2019-02-28T08:40:06.148Z,36.30
2019-02-28T08:42:39.679Z,35.80
2019-02-28T08:45:32.508Z,36.23
2019-02-28T08:48:02.177Z,34.47
2019-02-28T08:50:33.558Z,35.47
2019-02-28T08:53:05.228Z,33.53
2019-02-28T08:55:38.456Z,34.70
2019-02-28T08:58:10.002Z,35.23
2019-02-28T09:00:41.334Z,35.37
2019-02-28T09:03:19.202Z,37.17
2019-02-28T09:05:51.274Z,34.90
2019-02-28T09:08:25.358Z,34.27
2019-02-28T09:10:55.763Z,37.50
2019-02-28T09:13:27.003Z,33.00
2019-02-28T09:15:58.422Z,34.77
2019-02-28T09:18:29.875Z,34.07
2019-02-28T09:21:01.283Z,33.67
2019-02-28T09:23:34.429Z,34.70
2019-02-28T09:26:05.789Z,33.23
2019-02-28T09:28:37.045Z,31.17
2019-02-28T09:31:08.986Z,30.87
2019-02-28T09:33:40.738Z,31.47
2019-02-28T09:36:12.548Z,31.90
2019-02-28T09:38:45.246Z,30.80
2019-02-28T09:41:19.038Z,29.37
2019-02-28T09:43:52.035Z,29.47
2019-02-28T09:46:23.496Z,28.70
2019-02-28T09:48:55.080Z,28.63
2019-02-28T09:51:31.502Z,27.43
2019-02-28T09:53:59.959Z,27.30
2019-02-28T09:56:32.378Z,23.77
2019-02-28T09:59:03.941Z,22.20
2019-02-28T10:01:35.721Z,22.50
2019-02-28T10:04:07.776Z,20.97
2019-02-28T10:06:39.382Z,21.20
2019-02-28T10:09:11.343Z,21.87
2019-02-28T10:11:42.685Z,20.53
2019-02-28T10:14:14.124Z,19.87
2019-02-28T10:16:45.369Z,18.50
2019-02-28T10:19:16.845Z,19.47
2019-02-28T10:21:52.176Z,18.07
2019-02-28T10:24:22.314Z,17.30
2019-02-28T10:26:54.188Z,17.03
2019-02-28T10:29:25.708Z,16.50
2019-02-28T10:31:57.007Z,14.30
2019-02-28T10:34:28.417Z,17.90
2019-02-28T10:37:00.197Z,11.70
2019-02-28T10:39:31.549Z,12.53
2019-02-28T10:42:04.995Z,12.43
2019-02-28T10:44:35.833Z,12.00
2019-02-28T10:47:07.244Z,11.57
2019-02-28T10:49:38.648Z,12.13
2019-02-28T10:52:11.068Z,10.40
2019-02-28T10:54:42.719Z,12.47
2019-02-28T10:57:14.252Z,11.10
2019-02-28T10:59:46.228Z,11.90
2019-02-28T11:02:19.944Z,10.53
2019-02-28T11:04:52.069Z,9.50
2019-02-28T11:07:23.785Z,11.27
2019-02-28T11:09:55.633Z,10.20
2019-02-28T11:12:28.741Z,9.17
2019-02-28T11:15:00.340Z,8.80
2019-02-28T11:17:34.178Z,8.70
2019-02-28T11:20:06.193Z,8.03
2019-02-28T11:22:39.723Z,7.03
2019-02-28T11:25:12.335Z,7.60
2019-02-28T11:27:43.687Z,6.10
2019-02-28T11:30:16.247Z,7.03
2019-02-28T11:32:47.595Z,6.60
2019-02-28T11:35:20.150Z,5.63
2019-02-28T11:37:53.004Z,6.13
2019-02-28T11:40:25.392Z,7.03
2019-02-28T11:42:59.504Z,5.53
2019-02-28T11:45:31.482Z,5.80
2019-02-28T11:48:04.292Z,6.07
2019-02-28T11:50:41.375Z,4.83
2019-02-28T11:53:09.804Z,5.37
2019-02-28T11:55:41.478Z,5.70
2019-02-28T11:58:16.304Z,5.87
2019-02-28T12:00:46.143Z,5.77
2019-02-28T12:03:17.796Z,6.23
2019-02-28T12:05:50.627Z,5.23
2019-02-28T12:08:22.484Z,5.33
2019-02-28T12:10:54.042Z,4.90
2019-02-28T12:13:25.476Z,4.40
2019-02-28T12:15:57.156Z,4.80
2019-02-28T12:18:28.797Z,4.30
2019-02-28T12:21:01.775Z,3.57
2019-02-28T12:23:33.315Z,3.80
2019-02-28T12:26:04.751Z,2.90
2019-02-28T12:28:38.429Z,4.10
2019-02-28T12:31:10.817Z,2.97
2019-02-28T12:33:42.547Z,3.00
2019-02-28T12:36:15.326Z,2.87
2019-02-28T12:38:46.872Z,3.10
2019-02-28T12:41:18.129Z,2.70
2019-02-28T12:43:50.683Z,7.23
2019-02-28T12:46:22.043Z,2.73
2019-02-28T12:48:53.701Z,2.80
2019-02-28T12:51:24.955Z,2.80
2019-02-28T12:53:59.227Z,2.17
2019-02-28T12:56:30.804Z,2.23
2019-02-28T12:59:02.217Z,3.13
2019-02-28T13:01:34.356Z,2.93
2019-02-28T13:04:05.834Z,2.37
2019-02-28T13:06:37.108Z,2.60
2019-02-28T13:09:08.862Z,2.60
2019-02-28T13:11:40.248Z,2.80
2019-02-28T13:14:12.553Z,2.93
2019-02-28T13:16:44.527Z,4.60
2019-02-28T13:19:16.474Z,2.77
2019-02-28T13:21:50.009Z,3.60
2019-02-28T13:24:21.852Z,2.93
2019-02-28T13:26:53.752Z,2.80
2019-02-28T13:29:28.779Z,2.20
2019-02-28T13:32:01.395Z,4.27
2019-02-28T13:34:31.266Z,2.37
2019-02-28T13:37:03.282Z,2.10
2019-02-28T13:39:35.260Z,2.33
2019-02-28T13:42:06.986Z,2.53
2019-02-28T13:44:38.451Z,1.87
2019-02-28T13:47:10.910Z,2.80
2019-02-28T13:49:42.938Z,2.23
2019-02-28T13:52:19.094Z,1.93
2019-02-28T13:54:47.853Z,2.07
2019-02-28T13:57:19.811Z,2.23
2019-02-28T13:59:52.733Z,2.33
2019-02-28T14:02:26.244Z,2.17
2019-02-28T14:04:58.702Z,2.20
2019-02-28T14:07:33.715Z,2.13
2019-02-28T14:10:04.929Z,2.00
2019-02-28T14:12:36.903Z,2.63
2019-02-28T14:15:10.499Z,2.30
2019-02-28T14:17:42.038Z,2.50
2019-02-28T14:20:13.743Z,2.50
2019-02-28T14:22:46.616Z,2.40
2019-02-28T14:25:19.619Z,2.63
2019-02-28T14:27:51.825Z,2.10
2019-02-28T14:30:24.704Z,2.20
2019-02-28T14:32:58.466Z,2.80
2019-02-28T14:35:33.899Z,2.17
2019-02-28T14:38:03.609Z,4.10
2019-02-28T14:40:35.002Z,2.23
2019-02-28T14:43:06.754Z,2.20
2019-02-28T14:45:42.749Z,2.73
2019-02-28T14:48:12.896Z,2.83
2019-02-28T14:50:44.548Z,2.40
2019-02-28T14:53:16.058Z,2.40
2019-02-28T14:55:47.472Z,2.30
2019-02-28T14:58:21.162Z,2.20
2019-02-28T15:00:52.686Z,1.90
2019-02-28T15:03:26.833Z,2.10
2019-02-28T15:05:58.447Z,2.60
2019-02-28T15:08:29.978Z,2.47
2019-02-28T15:11:02.046Z,1.67
2019-02-28T15:13:34.282Z,2.27
2019-02-28T15:16:07.229Z,2.70
2019-02-28T15:18:38.704Z,2.60
2019-02-28T15:21:11.545Z,2.57
2019-02-28T15:23:43.156Z,3.10
2019-02-28T15:26:14.650Z,2.40
2019-02-28T15:28:48.563Z,2.70
2019-02-28T15:31:19.485Z,2.63
2019-02-28T15:33:56.532Z,2.30
2019-02-28T15:36:28.497Z,2.80
2019-02-28T15:39:00.027Z,3.20
2019-02-28T15:41:33.815Z,4.50
2019-02-28T15:44:04.791Z,3.80
2019-02-28T15:46:36.245Z,4.13
2019-02-28T15:49:10.166Z,4.20
2019-02-28T15:51:40.826Z,3.17
2019-02-28T15:54:13.167Z,3.03
2019-02-28T15:56:44.846Z,3.53
2019-02-28T15:59:16.326Z,3.50
2019-02-28T16:01:47.686Z,3.57
2019-02-28T16:04:19.703Z,3.30
2019-02-28T16:06:56.605Z,3.60
2019-02-28T16:09:24.821Z,4.50
2019-02-28T16:11:56.232Z,5.10
2019-02-28T16:14:27.778Z,5.80
2019-02-28T16:17:03.288Z,6.40
2019-02-28T16:19:33.136Z,8.30
2019-02-28T16:22:04.688Z,9.93
2019-02-28T16:24:36.730Z,8.67
2019-02-28T16:27:09.829Z,11.63
2019-02-28T16:29:41.005Z,11.47
2019-02-28T16:32:14.127Z,22.10
2019-02-28T16:34:45.791Z,10.07
2019-02-28T16:37:17.472Z,9.53
2019-02-28T16:39:49.994Z,9.20
2019-02-28T16:42:21.676Z,9.43
2019-02-28T16:44:53.582Z,10.07
2019-02-28T16:47:25.194Z,10.23
2019-02-28T16:49:56.722Z,9.93
2019-02-28T16:52:28.263Z,12.07
2019-02-28T16:54:59.785Z,9.70
2019-02-28T16:57:31.199Z,10.20
2019-02-28T17:00:04.129Z,10.80
2019-02-28T17:02:38.090Z,9.60
2019-02-28T17:05:11.405Z,10.23
2019-02-28T17:07:43.650Z,9.73
2019-02-28T17:10:17.005Z,9.80
2019-02-28T17:13:25.848Z,9.07
2019-02-28T17:16:28.485Z,14.00
2019-02-28T17:19:00.160Z,13.77
2019-02-28T17:21:31.718Z,10.47
2019-02-28T17:24:03.190Z,11.43
2019-02-28T17:27:02.364Z,11.93
2019-02-28T17:30:04.048Z,11.63
2019-02-28T17:32:36.192Z,12.07
2019-02-28T17:35:09.090Z,11.50
2019-02-28T17:37:40.715Z,12.93
2019-02-28T17:40:13.581Z,12.40
2019-02-28T17:42:46.446Z,13.67
2019-02-28T17:45:24.853Z,15.23
2019-02-28T17:48:52.804Z,26.83
2019-02-28T17:51:30.908Z,19.13
2019-02-28T17:54:20.877Z,16.60
2019-02-28T17:57:20.955Z,15.40
2019-02-28T18:00:35.090Z,12.90
2019-02-28T18:03:30.614Z,12.90
2019-02-28T18:06:37.031Z,13.90
2019-02-28T18:09:23.988Z,12.07
2019-02-28T18:12:27.931Z,14.57
2019-02-28T18:15:19.717Z,15.13
2019-02-28T18:18:19.684Z,12.73
2019-02-28T18:21:44.921Z,12.70
2019-02-28T18:25:00.404Z,12.50
2019-02-28T18:27:46.762Z,12.70
2019-02-28T18:31:10.885Z,12.27
2019-02-28T18:34:03.470Z,10.87
2019-02-28T18:36:35.283Z,11.83
2019-02-28T18:39:11.457Z,12.03
2019-02-28T18:41:43.173Z,10.77
2019-02-28T18:44:20.301Z,12.43
2019-02-28T18:46:51.816Z,10.63
2019-02-28T18:49:26.533Z,10.40
2019-02-28T18:51:56.835Z,11.73
2019-02-28T18:54:28.927Z,10.23
2019-02-28T18:57:00.325Z,11.43
2019-02-28T18:59:31.863Z,10.90
2019-02-28T19:02:03.617Z,12.80
2019-02-28T19:04:34.965Z,11.90
2019-02-28T19:07:06.928Z,10.90
2019-02-28T19:09:39.106Z,12.87
2019-02-28T19:12:11.482Z,11.80
2019-02-28T19:14:44.685Z,12.43
2019-02-28T19:17:16.381Z,11.33
2019-02-28T19:19:48.038Z,10.67
2019-02-28T19:22:20.092Z,10.70
2019-02-28T19:24:52.096Z,11.90
2019-02-28T19:27:24.172Z,11.37
2019-02-28T19:29:55.488Z,10.03
2019-02-28T19:32:27.154Z,11.57
2019-02-28T19:34:58.662Z,10.33
2019-02-28T19:37:30.058Z,10.67
2019-02-28T19:40:01.389Z,12.33
2019-02-28T19:42:34.641Z,10.63
2019-02-28T19:45:08.597Z,9.67
2019-02-28T19:47:40.684Z,10.07
2019-02-28T19:50:12.974Z,8.83
2019-02-28T19:52:44.702Z,13.77
2019-02-28T19:55:16.223Z,10.30
2019-02-28T19:57:47.784Z,9.33
2019-02-28T20:00:20.201Z,9.17
2019-02-28T20:02:52.675Z,8.90
2019-02-28T20:05:24.290Z,11.27
2019-02-28T20:07:55.725Z,10.20
2019-02-28T20:10:27.293Z,9.67
2019-02-28T20:12:58.934Z,9.23
2019-02-28T20:15:34.248Z,10.40
2019-02-28T20:18:05.994Z,14.90
2019-02-28T20:20:37.918Z,12.70
2019-02-28T20:23:09.808Z,14.23
2019-02-28T20:25:41.689Z,10.17
2019-02-28T20:28:13.384Z,18.57
2019-02-28T20:30:44.887Z,52.30
2019-02-28T20:33:16.795Z,31.07
2019-02-28T20:35:48.152Z,31.70
2019-02-28T20:38:20.005Z,19.40
2019-02-28T20:40:52.157Z,14.30
2019-02-28T20:43:24.031Z,11.97
2019-02-28T20:45:55.714Z,11.07
2019-02-28T20:48:27.190Z,11.50
2019-02-28T20:50:59.032Z,9.50
2019-02-28T20:53:36.324Z,10.40
2019-02-28T20:56:08.170Z,8.07
2019-02-28T20:58:39.918Z,8.07
2019-02-28T21:01:11.922Z,7.97
2019-02-28T21:03:43.937Z,9.10
2019-02-28T21:06:16.805Z,9.10
2019-02-28T21:08:49.833Z,7.07
2019-02-28T21:11:21.208Z,6.60
2019-02-28T21:13:53.557Z,7.27
2019-02-28T21:16:25.218Z,7.73
2019-02-28T21:18:58.199Z,8.03
2019-02-28T21:21:29.920Z,6.73
2019-02-28T21:24:01.542Z,6.67
2019-02-28T21:26:34.194Z,6.17
2019-02-28T21:29:05.834Z,6.13
2019-02-28T21:31:37.968Z,6.33
2019-02-28T21:34:09.979Z,6.93
2019-02-28T21:36:43.280Z,6.93
2019-02-28T21:39:15.121Z,6.23
2019-02-28T21:41:48.429Z,4.50
2019-02-28T21:44:25.859Z,5.27
2019-02-28T21:46:57.320Z,5.73
2019-02-28T21:49:28.868Z,5.43
2019-02-28T21:52:00.435Z,5.77
2019-02-28T21:54:31.976Z,4.77
2019-02-28T21:57:03.363Z,5.73
2019-02-28T21:59:35.286Z,5.37
2019-02-28T22:02:07.525Z,5.07
2019-02-28T22:04:39.513Z,6.80
2019-02-28T22:07:11.445Z,7.27
2019-02-28T22:09:42.910Z,8.33
2019-02-28T22:12:14.619Z,9.60
2019-02-28T22:14:45.977Z,8.93
2019-02-28T22:17:17.249Z,8.20
2019-02-28T22:19:48.619Z,8.53
2019-02-28T22:22:20.676Z,8.60
2019-02-28T22:24:52.732Z,9.17
2019-02-28T22:27:24.094Z,8.63
2019-02-28T22:29:55.625Z,9.20
2019-02-28T22:32:52.488Z,10.63
2019-02-28T22:35:33.441Z,10.17
2019-02-28T22:38:04.981Z,11.97
2019-02-28T22:40:36.373Z,11.13
2019-02-28T22:43:08.114Z,10.17
2019-02-28T22:45:39.662Z,10.00
2019-02-28T22:48:11.359Z,9.70
2019-02-28T22:50:42.808Z,10.07
2019-02-28T22:53:14.314Z,10.00
2019-02-28T22:55:45.880Z,10.10
2019-02-28T22:58:17.329Z,10.07
2019-02-28T23:01:08.196Z,7.47
2019-02-28T23:03:41.375Z,7.63
2019-02-28T23:06:13.265Z,8.00
2019-02-28T23:08:44.661Z,7.87
2019-02-28T23:11:15.988Z,7.07
2019-02-28T23:13:47.547Z,6.40
2019-02-28T23:16:19.264Z,6.53
2019-02-28T23:18:51.205Z,6.37
2019-02-28T23:21:22.850Z,7.80
2019-02-28T23:23:54.586Z,8.73
2019-02-28T23:26:27.157Z,9.20
2019-02-28T23:29:15.648Z,8.93
2019-02-28T23:32:40.186Z,9.37
2019-02-28T23:35:18.235Z,10.80
2019-02-28T23:37:50.479Z,11.67
2019-02-28T23:40:21.916Z,11.57
2019-02-28T23:42:53.904Z,10.27
2019-02-28T23:45:25.450Z,9.37
2019-02-28T23:47:57.165Z,9.77
2019-02-28T23:50:28.408Z,8.53
2019-02-28T23:52:59.981Z,9.40
2019-02-28T23:55:31.885Z,8.27
2019-02-28T23:58:03.374Z,9.10
